sensor_id;sensor_type;location;lat;lon;timestamp;P1;durP1;ratioP1;P2;durP2;ratioP2
12554;SDS011;6343;50.868;4.700;2023-07-31T00:02:22;8.33;;;3.50;;
12554;SDS011;6343;50.868;4.700;2023-07-31T00:04:48;7.47;;;3.30;;
12554;SDS011;6343;50.868;4.700;2023-07-31T00:07:14;12.53;;;4.27;;
12554;SDS011;6343;50.868;4.700;2023-07-31T00:09:40;11.00;;;3.80;;
12554;SDS011;6343;50.868;4.700;2023-07-31T00:12:06;12.10;;;3.30;;
12554;SDS011;6343;50.868;4.700;2023-07-31T00:14:33;8.43;;;3.23;;
12554;SDS011;6343;50.868;4.700;2023-07-31T00:16:59;9.60;;;3.73;;
12554;SDS011;6343;50.868;4.700;2023-07-31T00:19:25;5.83;;;3.23;;
12554;SDS011;6343;50.868;4.700;2023-07-31T00:21:51;6.90;;;3.10;;
12554;SDS011;6343;50.868;4.700;2023-07-31T00:24:17;5.73;;;3.10;;
12554;SDS011;6343;50.868;4.700;2023-07-31T00:26:43;12.47;;;3.50;;
12554;SDS011;6343;50.868;4.700;2023-07-31T00:29:09;6.60;;;3.57;;
12554;SDS011;6343;50.868;4.700;2023-07-31T00:31:35;11.33;;;4.53;;
12554;SDS011;6343;50.868;4.700;2023-07-31T00:34:01;8.47;;;3.70;;
12554;SDS011;6343;50.868;4.700;2023-07-31T00:36:27;9.93;;;3.23;;
12554;SDS011;6343;50.868;4.700;2023-07-31T00:38:53;12.70;;;3.70;;
12554;SDS011;6343;50.868;4.700;2023-07-31T00:41:19;11.07;;;3.87;;
12554;SDS011;6343;50.868;4.700;2023-07-31T00:43:45;7.37;;;3.47;;
12554;SDS011;6343;50.868;4.700;2023-07-31T00:46:11;6.93;;;3.53;;
12554;SDS011;6343;50.868;4.700;2023-07-31T00:48:37;8.77;;;3.50;;
12554;SDS011;6343;50.868;4.700;2023-07-31T00:51:04;7.87;;;3.30;;
12554;SDS011;6343;50.868;4.700;2023-07-31T00:53:30;10.93;;;3.93;;
12554;SDS011;6343;50.868;4.700;2023-07-31T00:55:57;6.77;;;2.90;;
12554;SDS011;6343;50.868;4.700;2023-07-31T00:58:23;10.70;;;3.70;;
12554;SDS011;6343;50.868;4.700;2023-07-31T01:00:49;10.70;;;3.57;;
12554;SDS011;6343;50.868;4.700;2023-07-31T01:03:16;9.27;;;3.50;;
12554;SDS011;6343;50.868;4.700;2023-07-31T01:06:06;8.53;;;3.43;;
12554;SDS011;6343;50.868;4.700;2023-07-31T01:11:05;11.47;;;3.50;;
12554;SDS011;6343;50.868;4.700;2023-07-31T01:13:32;11.70;;;3.40;;
12554;SDS011;6343;50.868;4.700;2023-07-31T01:15:58;7.63;;;3.10;;
12554;SDS011;6343;50.868;4.700;2023-07-31T01:18:24;6.60;;;3.07;;
12554;SDS011;6343;50.868;4.700;2023-07-31T01:20:54;8.00;;;3.50;;
12554;SDS011;6343;50.868;4.700;2023-07-31T01:23:38;11.30;;;3.60;;
12554;SDS011;6343;50.868;4.700;2023-07-31T01:26:12;7.07;;;3.37;;
12554;SDS011;6343;50.868;4.700;2023-07-31T01:31:18;12.03;;;3.63;;
12554;SDS011;6343;50.868;4.700;2023-07-31T01:33:45;10.13;;;3.00;;
12554;SDS011;6343;50.868;4.700;2023-07-31T01:36:11;11.33;;;3.40;;
12554;SDS011;6343;50.868;4.700;2023-07-31T01:38:37;8.30;;;3.27;;
12554;SDS011;6343;50.868;4.700;2023-07-31T01:41:03;10.30;;;3.90;;
12554;SDS011;6343;50.868;4.700;2023-07-31T01:43:29;9.60;;;3.33;;
12554;SDS011;6343;50.868;4.700;2023-07-31T01:45:56;6.80;;;3.43;;
12554;SDS011;6343;50.868;4.700;2023-07-31T01:48:22;9.37;;;3.40;;
12554;SDS011;6343;50.868;4.700;2023-07-31T01:50:48;8.47;;;3.20;;
12554;SDS011;6343;50.868;4.700;2023-07-31T01:53:14;14.00;;;3.30;;
12554;SDS011;6343;50.868;4.700;2023-07-31T01:55:40;10.60;;;2.90;;
12554;SDS011;6343;50.868;4.700;2023-07-31T01:58:06;13.27;;;3.67;;
12554;SDS011;6343;50.868;4.700;2023-07-31T02:00:32;9.60;;;3.47;;
12554;SDS011;6343;50.868;4.700;2023-07-31T02:02:59;7.87;;;3.57;;
12554;SDS011;6343;50.868;4.700;2023-07-31T02:05:25;7.70;;;3.40;;
12554;SDS011;6343;50.868;4.700;2023-07-31T02:07:51;9.70;;;3.73;;
12554;SDS011;6343;50.868;4.700;2023-07-31T02:10:17;8.07;;;3.50;;
12554;SDS011;6343;50.868;4.700;2023-07-31T02:12:43;7.43;;;3.37;;
12554;SDS011;6343;50.868;4.700;2023-07-31T02:15:09;6.67;;;3.17;;
12554;SDS011;6343;50.868;4.700;2023-07-31T02:17:35;8.37;;;3.67;;
12554;SDS011;6343;50.868;4.700;2023-07-31T02:20:01;5.33;;;3.70;;
12554;SDS011;6343;50.868;4.700;2023-07-31T02:22:28;6.87;;;3.33;;
12554;SDS011;6343;50.868;4.700;2023-07-31T02:24:54;7.97;;;3.50;;
12554;SDS011;6343;50.868;4.700;2023-07-31T02:27:20;7.93;;;3.70;;
12554;SDS011;6343;50.868;4.700;2023-07-31T02:29:49;6.17;;;3.50;;
12554;SDS011;6343;50.868;4.700;2023-07-31T02:32:15;11.57;;;4.13;;
12554;SDS011;6343;50.868;4.700;2023-07-31T02:34:41;7.30;;;3.17;;
12554;SDS011;6343;50.868;4.700;2023-07-31T02:37:07;7.87;;;3.50;;
12554;SDS011;6343;50.868;4.700;2023-07-31T02:39:33;6.87;;;3.40;;
12554;SDS011;6343;50.868;4.700;2023-07-31T02:41:59;7.93;;;3.57;;
12554;SDS011;6343;50.868;4.700;2023-07-31T02:44:26;8.83;;;3.60;;
12554;SDS011;6343;50.868;4.700;2023-07-31T02:46:52;11.40;;;4.03;;
12554;SDS011;6343;50.868;4.700;2023-07-31T02:49:18;6.77;;;3.40;;
12554;SDS011;6343;50.868;4.700;2023-07-31T02:51:44;7.70;;;3.27;;
12554;SDS011;6343;50.868;4.700;2023-07-31T02:54:10;7.20;;;3.77;;
12554;SDS011;6343;50.868;4.700;2023-07-31T02:56:36;4.80;;;3.13;;
12554;SDS011;6343;50.868;4.700;2023-07-31T02:59:02;9.93;;;3.70;;
12554;SDS011;6343;50.868;4.700;2023-07-31T03:01:28;5.17;;;3.37;;
12554;SDS011;6343;50.868;4.700;2023-07-31T03:03:54;8.03;;;3.57;;
12554;SDS011;6343;50.868;4.700;2023-07-31T03:06:20;9.97;;;3.40;;
12554;SDS011;6343;50.868;4.700;2023-07-31T03:08:46;7.30;;;3.30;;
12554;SDS011;6343;50.868;4.700;2023-07-31T03:11:13;6.37;;;3.20;;
12554;SDS011;6343;50.868;4.700;2023-07-31T03:13:39;5.67;;;3.20;;
12554;SDS011;6343;50.868;4.700;2023-07-31T03:16:05;6.67;;;3.23;;
12554;SDS011;6343;50.868;4.700;2023-07-31T03:18:31;8.67;;;3.00;;
12554;SDS011;6343;50.868;4.700;2023-07-31T03:20:57;9.27;;;3.27;;
12554;SDS011;6343;50.868;4.700;2023-07-31T03:23:23;4.53;;;2.93;;
12554;SDS011;6343;50.868;4.700;2023-07-31T03:26:00;8.60;;;2.97;;
12554;SDS011;6343;50.868;4.700;2023-07-31T03:28:28;5.80;;;2.93;;
12554;SDS011;6343;50.868;4.700;2023-07-31T03:30:54;4.53;;;2.63;;
12554;SDS011;6343;50.868;4.700;2023-07-31T03:33:20;8.13;;;3.30;;
12554;SDS011;6343;50.868;4.700;2023-07-31T03:35:46;6.17;;;2.63;;
12554;SDS011;6343;50.868;4.700;2023-07-31T03:38:12;5.97;;;3.27;;
12554;SDS011;6343;50.868;4.700;2023-07-31T03:40:39;5.17;;;2.83;;
12554;SDS011;6343;50.868;4.700;2023-07-31T03:43:05;7.77;;;2.97;;
12554;SDS011;6343;50.868;4.700;2023-07-31T03:45:31;4.00;;;2.83;;
12554;SDS011;6343;50.868;4.700;2023-07-31T03:47:57;5.07;;;2.77;;
12554;SDS011;6343;50.868;4.700;2023-07-31T03:50:23;6.27;;;2.93;;
12554;SDS011;6343;50.868;4.700;2023-07-31T03:52:50;5.27;;;3.17;;
12554;SDS011;6343;50.868;4.700;2023-07-31T03:55:16;4.97;;;2.83;;
12554;SDS011;6343;50.868;4.700;2023-07-31T03:57:43;5.20;;;3.30;;
12554;SDS011;6343;50.868;4.700;2023-07-31T04:00:09;5.90;;;3.00;;
12554;SDS011;6343;50.868;4.700;2023-07-31T04:02:35;7.77;;;3.00;;
12554;SDS011;6343;50.868;4.700;2023-07-31T04:05:01;6.83;;;2.93;;
12554;SDS011;6343;50.868;4.700;2023-07-31T04:07:28;5.60;;;3.10;;
12554;SDS011;6343;50.868;4.700;2023-07-31T04:09:54;6.60;;;3.30;;
12554;SDS011;6343;50.868;4.700;2023-07-31T04:12:20;5.60;;;2.97;;
12554;SDS011;6343;50.868;4.700;2023-07-31T04:14:46;5.63;;;2.93;;
12554;SDS011;6343;50.868;4.700;2023-07-31T04:17:12;5.93;;;3.03;;
12554;SDS011;6343;50.868;4.700;2023-07-31T04:19:38;4.77;;;3.30;;
12554;SDS011;6343;50.868;4.700;2023-07-31T04:22:04;5.10;;;3.00;;
12554;SDS011;6343;50.868;4.700;2023-07-31T04:24:30;6.47;;;3.03;;
12554;SDS011;6343;50.868;4.700;2023-07-31T04:26:56;5.37;;;3.20;;
12554;SDS011;6343;50.868;4.700;2023-07-31T04:29:22;5.37;;;2.80;;
12554;SDS011;6343;50.868;4.700;2023-07-31T04:31:49;5.40;;;2.80;;
12554;SDS011;6343;50.868;4.700;2023-07-31T04:34:15;5.33;;;2.70;;
12554;SDS011;6343;50.868;4.700;2023-07-31T04:36:41;6.30;;;2.13;;
12554;SDS011;6343;50.868;4.700;2023-07-31T04:39:07;6.03;;;3.03;;
12554;SDS011;6343;50.868;4.700;2023-07-31T04:41:33;5.03;;;2.90;;
12554;SDS011;6343;50.868;4.700;2023-07-31T04:43:59;5.20;;;2.97;;
12554;SDS011;6343;50.868;4.700;2023-07-31T04:46:25;6.30;;;3.17;;
12554;SDS011;6343;50.868;4.700;2023-07-31T04:48:51;7.17;;;3.17;;
12554;SDS011;6343;50.868;4.700;2023-07-31T04:51:17;4.80;;;2.73;;
12554;SDS011;6343;50.868;4.700;2023-07-31T04:53:43;5.60;;;2.90;;
12554;SDS011;6343;50.868;4.700;2023-07-31T04:56:09;5.07;;;2.90;;
12554;SDS011;6343;50.868;4.700;2023-07-31T04:58:36;4.77;;;3.07;;
12554;SDS011;6343;50.868;4.700;2023-07-31T05:01:02;5.83;;;2.43;;
12554;SDS011;6343;50.868;4.700;2023-07-31T05:03:28;7.03;;;2.97;;
12554;SDS011;6343;50.868;4.700;2023-07-31T05:05:54;5.70;;;2.60;;
12554;SDS011;6343;50.868;4.700;2023-07-31T05:08:20;7.60;;;2.90;;
12554;SDS011;6343;50.868;4.700;2023-07-31T05:10:46;4.93;;;2.63;;
12554;SDS011;6343;50.868;4.700;2023-07-31T05:13:12;5.37;;;2.27;;
12554;SDS011;6343;50.868;4.700;2023-07-31T05:15:38;5.37;;;2.60;;
12554;SDS011;6343;50.868;4.700;2023-07-31T05:18:04;4.73;;;3.00;;
12554;SDS011;6343;50.868;4.700;2023-07-31T05:20:30;4.93;;;2.93;;
12554;SDS011;6343;50.868;4.700;2023-07-31T05:22:56;5.40;;;2.90;;
12554;SDS011;6343;50.868;4.700;2023-07-31T05:25:22;5.17;;;2.77;;
12554;SDS011;6343;50.868;4.700;2023-07-31T05:27:48;5.17;;;2.80;;
12554;SDS011;6343;50.868;4.700;2023-07-31T05:30:14;4.20;;;2.43;;
12554;SDS011;6343;50.868;4.700;2023-07-31T05:32:41;5.20;;;2.73;;
12554;SDS011;6343;50.868;4.700;2023-07-31T05:35:07;3.87;;;2.43;;
12554;SDS011;6343;50.868;4.700;2023-07-31T05:37:34;5.63;;;2.83;;
12554;SDS011;6343;50.868;4.700;2023-07-31T05:40:00;3.63;;;2.43;;
12554;SDS011;6343;50.868;4.700;2023-07-31T05:42:26;5.67;;;2.77;;
12554;SDS011;6343;50.868;4.700;2023-07-31T05:44:52;6.00;;;2.97;;
12554;SDS011;6343;50.868;4.700;2023-07-31T05:47:18;6.90;;;2.73;;
12554;SDS011;6343;50.868;4.700;2023-07-31T05:49:44;7.17;;;2.90;;
12554;SDS011;6343;50.868;4.700;2023-07-31T05:52:10;5.87;;;2.80;;
12554;SDS011;6343;50.868;4.700;2023-07-31T05:54:36;6.57;;;3.27;;
12554;SDS011;6343;50.868;4.700;2023-07-31T05:57:02;4.40;;;2.30;;
12554;SDS011;6343;50.868;4.700;2023-07-31T05:59:28;4.37;;;2.40;;
12554;SDS011;6343;50.868;4.700;2023-07-31T06:01:58;7.23;;;2.50;;
12554;SDS011;6343;50.868;4.700;2023-07-31T06:04:24;4.73;;;2.50;;
12554;SDS011;6343;50.868;4.700;2023-07-31T06:06:51;5.80;;;2.83;;
12554;SDS011;6343;50.868;4.700;2023-07-31T06:09:17;3.60;;;2.43;;
12554;SDS011;6343;50.868;4.700;2023-07-31T06:11:43;3.00;;;2.40;;
12554;SDS011;6343;50.868;4.700;2023-07-31T06:14:09;3.93;;;2.43;;
12554;SDS011;6343;50.868;4.700;2023-07-31T06:16:35;5.60;;;2.70;;
12554;SDS011;6343;50.868;4.700;2023-07-31T06:19:01;4.70;;;2.83;;
12554;SDS011;6343;50.868;4.700;2023-07-31T06:21:27;5.87;;;3.17;;
12554;SDS011;6343;50.868;4.700;2023-07-31T06:23:54;6.10;;;2.57;;
12554;SDS011;6343;50.868;4.700;2023-07-31T06:26:21;5.30;;;2.77;;
12554;SDS011;6343;50.868;4.700;2023-07-31T06:28:47;7.70;;;2.90;;
12554;SDS011;6343;50.868;4.700;2023-07-31T06:31:13;5.23;;;2.70;;
12554;SDS011;6343;50.868;4.700;2023-07-31T06:33:39;4.43;;;2.57;;
12554;SDS011;6343;50.868;4.700;2023-07-31T06:36:05;6.73;;;2.60;;
12554;SDS011;6343;50.868;4.700;2023-07-31T06:38:32;5.40;;;2.50;;
12554;SDS011;6343;50.868;4.700;2023-07-31T06:40:58;5.17;;;2.53;;
12554;SDS011;6343;50.868;4.700;2023-07-31T06:43:24;5.33;;;2.70;;
12554;SDS011;6343;50.868;4.700;2023-07-31T06:45:50;6.23;;;2.53;;
12554;SDS011;6343;50.868;4.700;2023-07-31T06:48:16;9.00;;;2.40;;
12554;SDS011;6343;50.868;4.700;2023-07-31T06:50:42;7.40;;;2.90;;
12554;SDS011;6343;50.868;4.700;2023-07-31T06:53:08;5.17;;;2.70;;
12554;SDS011;6343;50.868;4.700;2023-07-31T06:55:34;4.57;;;2.27;;
12554;SDS011;6343;50.868;4.700;2023-07-31T06:58:00;6.10;;;2.90;;
12554;SDS011;6343;50.868;4.700;2023-07-31T07:00:26;5.57;;;2.67;;
12554;SDS011;6343;50.868;4.700;2023-07-31T07:02:53;6.33;;;2.50;;
12554;SDS011;6343;50.868;4.700;2023-07-31T07:05:19;3.33;;;2.40;;
12554;SDS011;6343;50.868;4.700;2023-07-31T07:07:46;4.40;;;2.40;;
12554;SDS011;6343;50.868;4.700;2023-07-31T07:10:12;5.43;;;2.90;;
12554;SDS011;6343;50.868;4.700;2023-07-31T07:12:38;3.47;;;2.17;;
12554;SDS011;6343;50.868;4.700;2023-07-31T07:15:04;4.10;;;2.50;;
12554;SDS011;6343;50.868;4.700;2023-07-31T07:17:30;3.13;;;2.33;;
12554;SDS011;6343;50.868;4.700;2023-07-31T07:19:56;4.67;;;2.73;;
12554;SDS011;6343;50.868;4.700;2023-07-31T07:22:23;4.57;;;2.40;;
12554;SDS011;6343;50.868;4.700;2023-07-31T07:24:49;4.87;;;2.30;;
12554;SDS011;6343;50.868;4.700;2023-07-31T07:27:15;8.17;;;2.50;;
12554;SDS011;6343;50.868;4.700;2023-07-31T07:29:41;7.27;;;2.90;;
12554;SDS011;6343;50.868;4.700;2023-07-31T07:32:07;4.33;;;2.73;;
12554;SDS011;6343;50.868;4.700;2023-07-31T07:34:33;3.80;;;2.30;;
12554;SDS011;6343;50.868;4.700;2023-07-31T07:36:59;5.73;;;2.70;;
12554;SDS011;6343;50.868;4.700;2023-07-31T07:39:26;4.73;;;2.40;;
12554;SDS011;6343;50.868;4.700;2023-07-31T07:41:52;4.37;;;2.60;;
12554;SDS011;6343;50.868;4.700;2023-07-31T07:44:19;7.60;;;2.70;;
12554;SDS011;6343;50.868;4.700;2023-07-31T07:46:46;5.73;;;2.77;;
12554;SDS011;6343;50.868;4.700;2023-07-31T07:49:12;8.10;;;2.70;;
12554;SDS011;6343;50.868;4.700;2023-07-31T07:51:38;4.20;;;2.37;;
12554;SDS011;6343;50.868;4.700;2023-07-31T07:54:04;3.70;;;2.33;;
12554;SDS011;6343;50.868;4.700;2023-07-31T07:56:32;6.30;;;2.90;;
12554;SDS011;6343;50.868;4.700;2023-07-31T07:58:58;4.33;;;2.40;;
12554;SDS011;6343;50.868;4.700;2023-07-31T08:03:00;6.73;;;2.80;;
12554;SDS011;6343;50.868;4.700;2023-07-31T08:05:26;5.23;;;2.43;;
12554;SDS011;6343;50.868;4.700;2023-07-31T08:07:52;6.30;;;2.50;;
12554;SDS011;6343;50.868;4.700;2023-07-31T08:10:18;5.27;;;2.50;;
12554;SDS011;6343;50.868;4.700;2023-07-31T08:12:44;6.83;;;2.67;;
12554;SDS011;6343;50.868;4.700;2023-07-31T08:15:10;3.93;;;2.47;;
12554;SDS011;6343;50.868;4.700;2023-07-31T08:17:36;6.57;;;2.30;;
12554;SDS011;6343;50.868;4.700;2023-07-31T08:20:03;4.03;;;2.20;;
12554;SDS011;6343;50.868;4.700;2023-07-31T08:22:29;5.13;;;2.37;;
12554;SDS011;6343;50.868;4.700;2023-07-31T08:24:55;3.17;;;2.30;;
12554;SDS011;6343;50.868;4.700;2023-07-31T08:27:21;4.70;;;2.50;;
12554;SDS011;6343;50.868;4.700;2023-07-31T08:29:48;3.50;;;2.30;;
12554;SDS011;6343;50.868;4.700;2023-07-31T08:32:14;2.90;;;2.10;;
12554;SDS011;6343;50.868;4.700;2023-07-31T08:34:40;4.53;;;2.03;;
12554;SDS011;6343;50.868;4.700;2023-07-31T08:37:06;3.77;;;2.50;;
12554;SDS011;6343;50.868;4.700;2023-07-31T08:39:33;2.63;;;1.97;;
12554;SDS011;6343;50.868;4.700;2023-07-31T08:41:59;5.07;;;2.17;;
12554;SDS011;6343;50.868;4.700;2023-07-31T08:44:25;4.03;;;2.20;;
12554;SDS011;6343;50.868;4.700;2023-07-31T08:46:51;3.90;;;1.70;;
12554;SDS011;6343;50.868;4.700;2023-07-31T08:49:17;3.23;;;2.30;;
12554;SDS011;6343;50.868;4.700;2023-07-31T08:51:46;3.97;;;2.30;;
12554;SDS011;6343;50.868;4.700;2023-07-31T08:54:12;3.73;;;1.90;;
12554;SDS011;6343;50.868;4.700;2023-07-31T08:56:38;3.77;;;2.00;;
12554;SDS011;6343;50.868;4.700;2023-07-31T08:59:05;3.57;;;2.00;;
12554;SDS011;6343;50.868;4.700;2023-07-31T09:01:31;3.23;;;2.10;;
12554;SDS011;6343;50.868;4.700;2023-07-31T09:04:00;6.70;;;2.33;;
12554;SDS011;6343;50.868;4.700;2023-07-31T09:06:27;3.73;;;2.30;;
12554;SDS011;6343;50.868;4.700;2023-07-31T09:08:54;3.20;;;2.00;;
12554;SDS011;6343;50.868;4.700;2023-07-31T09:11:21;4.10;;;1.97;;
12554;SDS011;6343;50.868;4.700;2023-07-31T09:13:47;2.37;;;1.97;;
12554;SDS011;6343;50.868;4.700;2023-07-31T09:16:14;5.37;;;2.40;;
12554;SDS011;6343;50.868;4.700;2023-07-31T09:19:13;5.03;;;2.17;;
12554;SDS011;6343;50.868;4.700;2023-07-31T09:21:32;3.63;;;1.80;;
12554;SDS011;6343;50.868;4.700;2023-07-31T09:23:58;5.33;;;2.03;;
12554;SDS011;6343;50.868;4.700;2023-07-31T09:26:34;2.60;;;1.80;;
12554;SDS011;6343;50.868;4.700;2023-07-31T09:29:01;4.90;;;2.10;;
12554;SDS011;6343;50.868;4.700;2023-07-31T09:33:59;4.57;;;2.40;;
12554;SDS011;6343;50.868;4.700;2023-07-31T09:36:28;2.23;;;1.80;;
12554;SDS011;6343;50.868;4.700;2023-07-31T09:38:55;4.00;;;2.20;;
12554;SDS011;6343;50.868;4.700;2023-07-31T09:41:21;4.53;;;2.30;;
12554;SDS011;6343;50.868;4.700;2023-07-31T09:43:53;4.07;;;2.47;;
12554;SDS011;6343;50.868;4.700;2023-07-31T09:46:20;3.40;;;2.07;;
12554;SDS011;6343;50.868;4.700;2023-07-31T09:48:49;6.47;;;3.00;;
12554;SDS011;6343;50.868;4.700;2023-07-31T09:51:15;4.67;;;2.33;;
12554;SDS011;6343;50.868;4.700;2023-07-31T09:53:41;4.43;;;2.40;;
12554;SDS011;6343;50.868;4.700;2023-07-31T09:56:07;6.07;;;2.60;;
12554;SDS011;6343;50.868;4.700;2023-07-31T09:58:34;3.37;;;2.10;;
12554;SDS011;6343;50.868;4.700;2023-07-31T10:01:01;3.67;;;2.17;;
12554;SDS011;6343;50.868;4.700;2023-07-31T10:03:27;4.13;;;2.30;;
12554;SDS011;6343;50.868;4.700;2023-07-31T10:05:55;5.07;;;2.30;;
12554;SDS011;6343;50.868;4.700;2023-07-31T10:08:23;5.20;;;2.63;;
12554;SDS011;6343;50.868;4.700;2023-07-31T10:10:52;6.53;;;2.87;;
12554;SDS011;6343;50.868;4.700;2023-07-31T10:13:18;6.93;;;3.00;;
12554;SDS011;6343;50.868;4.700;2023-07-31T10:15:44;4.40;;;2.37;;
12554;SDS011;6343;50.868;4.700;2023-07-31T10:18:10;3.87;;;2.80;;
12554;SDS011;6343;50.868;4.700;2023-07-31T10:20:37;6.37;;;2.87;;
12554;SDS011;6343;50.868;4.700;2023-07-31T10:23:04;5.10;;;3.07;;
12554;SDS011;6343;50.868;4.700;2023-07-31T10:25:30;5.37;;;2.67;;
12554;SDS011;6343;50.868;4.700;2023-07-31T10:27:57;5.77;;;3.30;;
12554;SDS011;6343;50.868;4.700;2023-07-31T10:30:25;7.47;;;3.73;;
12554;SDS011;6343;50.868;4.700;2023-07-31T10:32:51;10.77;;;5.50;;
12554;SDS011;6343;50.868;4.700;2023-07-31T10:35:20;5.70;;;2.90;;
12554;SDS011;6343;50.868;4.700;2023-07-31T10:37:50;7.17;;;3.10;;
12554;SDS011;6343;50.868;4.700;2023-07-31T10:40:16;6.77;;;3.70;;
12554;SDS011;6343;50.868;4.700;2023-07-31T10:45:14;5.13;;;2.80;;
12554;SDS011;6343;50.868;4.700;2023-07-31T10:47:51;8.47;;;3.33;;
12554;SDS011;6343;50.868;4.700;2023-07-31T10:50:24;6.43;;;3.30;;
12554;SDS011;6343;50.868;4.700;2023-07-31T10:52:51;8.03;;;3.30;;
12554;SDS011;6343;50.868;4.700;2023-07-31T10:57:57;6.77;;;2.90;;
12554;SDS011;6343;50.868;4.700;2023-07-31T11:00:28;5.87;;;2.97;;
12554;SDS011;6343;50.868;4.700;2023-07-31T11:03:07;6.17;;;3.50;;
12554;SDS011;6343;50.868;4.700;2023-07-31T11:08:32;6.77;;;3.13;;
12554;SDS011;6343;50.868;4.700;2023-07-31T11:13:28;5.87;;;3.20;;
12554;SDS011;6343;50.868;4.700;2023-07-31T11:15:54;5.00;;;3.23;;
12554;SDS011;6343;50.868;4.700;2023-07-31T11:18:20;8.10;;;3.93;;
12554;SDS011;6343;50.868;4.700;2023-07-31T11:20:46;8.03;;;3.67;;
12554;SDS011;6343;50.868;4.700;2023-07-31T11:23:12;8.07;;;3.43;;
12554;SDS011;6343;50.868;4.700;2023-07-31T11:25:39;8.77;;;3.10;;
12554;SDS011;6343;50.868;4.700;2023-07-31T11:28:09;6.63;;;3.33;;
12554;SDS011;6343;50.868;4.700;2023-07-31T11:30:36;7.37;;;3.27;;
12554;SDS011;6343;50.868;4.700;2023-07-31T11:33:02;6.77;;;3.13;;
12554;SDS011;6343;50.868;4.700;2023-07-31T11:35:40;7.80;;;3.43;;
12554;SDS011;6343;50.868;4.700;2023-07-31T11:38:07;4.43;;;2.93;;
12554;SDS011;6343;50.868;4.700;2023-07-31T11:40:40;7.30;;;3.50;;
12554;SDS011;6343;50.868;4.700;2023-07-31T11:43:07;6.90;;;3.67;;
12554;SDS011;6343;50.868;4.700;2023-07-31T11:45:33;6.27;;;3.20;;
12554;SDS011;6343;50.868;4.700;2023-07-31T11:48:00;5.37;;;2.93;;
12554;SDS011;6343;50.868;4.700;2023-07-31T11:50:26;4.50;;;3.53;;
12554;SDS011;6343;50.868;4.700;2023-07-31T11:52:55;8.20;;;3.13;;
12554;SDS011;6343;50.868;4.700;2023-07-31T11:55:23;8.47;;;3.83;;
12554;SDS011;6343;50.868;4.700;2023-07-31T11:57:49;9.73;;;3.30;;
12554;SDS011;6343;50.868;4.700;2023-07-31T12:00:16;6.43;;;3.27;;
12554;SDS011;6343;50.868;4.700;2023-07-31T12:02:42;4.87;;;3.13;;
12554;SDS011;6343;50.868;4.700;2023-07-31T12:05:12;6.00;;;2.63;;
12554;SDS011;6343;50.868;4.700;2023-07-31T12:07:42;6.07;;;3.27;;
12554;SDS011;6343;50.868;4.700;2023-07-31T12:10:09;5.40;;;2.80;;
12554;SDS011;6343;50.868;4.700;2023-07-31T12:13:11;6.57;;;3.10;;
12554;SDS011;6343;50.868;4.700;2023-07-31T12:18:11;6.43;;;3.20;;
12554;SDS011;6343;50.868;4.700;2023-07-31T12:20:42;7.40;;;3.67;;
12554;SDS011;6343;50.868;4.700;2023-07-31T12:23:12;5.53;;;2.97;;
12554;SDS011;6343;50.868;4.700;2023-07-31T12:25:39;5.67;;;3.07;;
12554;SDS011;6343;50.868;4.700;2023-07-31T12:28:05;4.77;;;2.93;;
12554;SDS011;6343;50.868;4.700;2023-07-31T12:30:36;6.40;;;2.90;;
12554;SDS011;6343;50.868;4.700;2023-07-31T12:33:06;10.00;;;3.27;;
12554;SDS011;6343;50.868;4.700;2023-07-31T12:35:36;4.60;;;2.90;;
12554;SDS011;6343;50.868;4.700;2023-07-31T12:38:02;6.20;;;2.80;;
12554;SDS011;6343;50.868;4.700;2023-07-31T12:40:29;5.73;;;3.33;;
12554;SDS011;6343;50.868;4.700;2023-07-31T12:42:55;6.97;;;3.00;;
12554;SDS011;6343;50.868;4.700;2023-07-31T12:45:21;8.30;;;3.50;;
12554;SDS011;6343;50.868;4.700;2023-07-31T12:47:48;6.87;;;3.00;;
12554;SDS011;6343;50.868;4.700;2023-07-31T12:50:15;6.00;;;3.13;;
12554;SDS011;6343;50.868;4.700;2023-07-31T12:52:41;7.90;;;3.77;;
12554;SDS011;6343;50.868;4.700;2023-07-31T12:55:07;4.43;;;3.23;;
12554;SDS011;6343;50.868;4.700;2023-07-31T12:57:36;7.97;;;3.63;;
12554;SDS011;6343;50.868;4.700;2023-07-31T13:00:02;5.10;;;3.17;;
12554;SDS011;6343;50.868;4.700;2023-07-31T13:02:28;7.53;;;3.30;;
12554;SDS011;6343;50.868;4.700;2023-07-31T13:04:54;9.27;;;3.40;;
12554;SDS011;6343;50.868;4.700;2023-07-31T13:07:21;7.10;;;3.47;;
12554;SDS011;6343;50.868;4.700;2023-07-31T13:09:48;7.60;;;3.40;;
12554;SDS011;6343;50.868;4.700;2023-07-31T13:12:14;8.10;;;3.73;;
12554;SDS011;6343;50.868;4.700;2023-07-31T13:14:40;6.97;;;3.60;;
12554;SDS011;6343;50.868;4.700;2023-07-31T13:17:06;7.10;;;3.73;;
12554;SDS011;6343;50.868;4.700;2023-07-31T13:19:32;10.40;;;3.43;;
12554;SDS011;6343;50.868;4.700;2023-07-31T13:21:58;5.97;;;3.10;;
12554;SDS011;6343;50.868;4.700;2023-07-31T13:24:24;3.93;;;3.13;;
12554;SDS011;6343;50.868;4.700;2023-07-31T13:26:50;7.37;;;3.30;;
12554;SDS011;6343;50.868;4.700;2023-07-31T13:29:17;6.87;;;3.17;;
12554;SDS011;6343;50.868;4.700;2023-07-31T13:31:43;5.20;;;2.87;;
12554;SDS011;6343;50.868;4.700;2023-07-31T13:34:09;9.87;;;3.20;;
12554;SDS011;6343;50.868;4.700;2023-07-31T13:36:35;3.87;;;2.70;;
12554;SDS011;6343;50.868;4.700;2023-07-31T13:39:02;4.53;;;2.40;;
12554;SDS011;6343;50.868;4.700;2023-07-31T13:41:28;4.83;;;2.53;;
12554;SDS011;6343;50.868;4.700;2023-07-31T13:43:54;9.87;;;3.00;;
12554;SDS011;6343;50.868;4.700;2023-07-31T13:46:20;4.83;;;2.47;;
12554;SDS011;6343;50.868;4.700;2023-07-31T13:48:46;6.23;;;2.63;;
12554;SDS011;6343;50.868;4.700;2023-07-31T13:51:12;7.23;;;2.40;;
12554;SDS011;6343;50.868;4.700;2023-07-31T13:53:38;7.20;;;2.80;;
12554;SDS011;6343;50.868;4.700;2023-07-31T13:56:04;4.50;;;2.23;;
12554;SDS011;6343;50.868;4.700;2023-07-31T13:58:32;4.43;;;2.03;;
12554;SDS011;6343;50.868;4.700;2023-07-31T14:00:58;6.10;;;2.27;;
12554;SDS011;6343;50.868;4.700;2023-07-31T14:03:24;5.60;;;2.70;;
12554;SDS011;6343;50.868;4.700;2023-07-31T14:05:51;6.30;;;2.53;;
12554;SDS011;6343;50.868;4.700;2023-07-31T14:08:18;3.97;;;2.20;;
12554;SDS011;6343;50.868;4.700;2023-07-31T14:10:44;3.60;;;2.13;;
12554;SDS011;6343;50.868;4.700;2023-07-31T14:13:10;6.47;;;2.27;;
12554;SDS011;6343;50.868;4.700;2023-07-31T14:15:36;3.20;;;2.10;;
12554;SDS011;6343;50.868;4.700;2023-07-31T14:18:02;3.40;;;2.30;;
12554;SDS011;6343;50.868;4.700;2023-07-31T14:20:29;7.37;;;2.37;;
12554;SDS011;6343;50.868;4.700;2023-07-31T14:22:55;4.90;;;2.07;;
12554;SDS011;6343;50.868;4.700;2023-07-31T14:25:21;3.43;;;2.23;;
12554;SDS011;6343;50.868;4.700;2023-07-31T14:27:47;4.90;;;1.90;;
12554;SDS011;6343;50.868;4.700;2023-07-31T14:30:13;2.63;;;1.97;;
12554;SDS011;6343;50.868;4.700;2023-07-31T14:32:40;2.73;;;1.80;;
12554;SDS011;6343;50.868;4.700;2023-07-31T14:35:06;4.03;;;1.93;;
12554;SDS011;6343;50.868;4.700;2023-07-31T14:37:39;3.80;;;2.20;;
12554;SDS011;6343;50.868;4.700;2023-07-31T14:40:07;4.73;;;2.30;;
12554;SDS011;6343;50.868;4.700;2023-07-31T14:42:34;4.83;;;1.97;;
12554;SDS011;6343;50.868;4.700;2023-07-31T14:45:00;3.47;;;2.10;;
12554;SDS011;6343;50.868;4.700;2023-07-31T14:47:26;3.30;;;1.97;;
12554;SDS011;6343;50.868;4.700;2023-07-31T14:49:52;6.07;;;2.27;;
12554;SDS011;6343;50.868;4.700;2023-07-31T14:52:18;3.97;;;1.97;;
12554;SDS011;6343;50.868;4.700;2023-07-31T14:54:44;3.10;;;2.07;;
12554;SDS011;6343;50.868;4.700;2023-07-31T14:57:10;4.40;;;2.10;;
12554;SDS011;6343;50.868;4.700;2023-07-31T14:59:37;3.77;;;2.10;;
12554;SDS011;6343;50.868;4.700;2023-07-31T15:02:03;3.27;;;1.80;;
12554;SDS011;6343;50.868;4.700;2023-07-31T15:04:29;3.13;;;2.00;;
12554;SDS011;6343;50.868;4.700;2023-07-31T15:06:55;2.50;;;1.90;;
12554;SDS011;6343;50.868;4.700;2023-07-31T15:09:21;5.00;;;1.80;;
12554;SDS011;6343;50.868;4.700;2023-07-31T15:11:47;1.70;;;1.47;;
12554;SDS011;6343;50.868;4.700;2023-07-31T15:14:13;2.00;;;1.70;;
12554;SDS011;6343;50.868;4.700;2023-07-31T15:16:39;3.27;;;1.70;;
12554;SDS011;6343;50.868;4.700;2023-07-31T15:19:05;4.33;;;1.60;;
12554;SDS011;6343;50.868;4.700;2023-07-31T15:21:31;3.00;;;1.60;;